sensor_id;sensor_type;location;lat;lon;timestamp;temperature;humidity
68801;SHT31;55784;50.734;7.086;2023-11-19T00:00:45;11.16;96.09
68801;SHT31;55784;50.734;7.086;2023-11-19T00:03:11;11.16;96.10
68801;SHT31;55784;50.734;7.086;2023-11-19T00:05:38;11.13;96.27
68801;SHT31;55784;50.734;7.086;2023-11-19T00:08:13;11.17;96.32
68801;SHT31;55784;50.734;7.086;2023-11-19T00:10:38;11.14;96.48
68801;SHT31;55784;50.734;7.086;2023-11-19T00:13:07;11.13;96.56
68801;SHT31;55784;50.734;7.086;2023-11-19T00:15:32;11.07;96.82
68801;SHT31;55784;50.734;7.086;2023-11-19T00:18:09;11.03;96.92
68801;SHT31;55784;50.734;7.086;2023-11-19T00:20:41;10.99;97.21
68801;SHT31;55784;50.734;7.086;2023-11-19T00:23:09;11.03;97.25
68801;SHT31;55784;50.734;7.086;2023-11-19T00:25:35;10.99;97.48
68801;SHT31;55784;50.734;7.086;2023-11-19T00:28:00;10.97;97.48
68801;SHT31;55784;50.734;7.086;2023-11-19T00:30:25;11.00;97.43
68801;SHT31;55784;50.734;7.086;2023-11-19T00:32:51;11.04;97.43
68801;SHT31;55784;50.734;7.086;2023-11-19T00:35:16;11.01;97.52
68801;SHT31;55784;50.734;7.086;2023-11-19T00:37:42;10.96;97.64
68801;SHT31;55784;50.734;7.086;2023-11-19T00:40:10;10.90;97.90
68801;SHT31;55784;50.734;7.086;2023-11-19T00:42:43;10.92;97.91
68801;SHT31;55784;50.734;7.086;2023-11-19T00:45:09;10.89;98.09
68801;SHT31;55784;50.734;7.086;2023-11-19T00:47:35;10.93;98.11
68801;SHT31;55784;50.734;7.086;2023-11-19T00:50:10;10.95;98.16
68801;SHT31;55784;50.734;7.086;2023-11-19T00:53:02;10.95;98.22
68801;SHT31;55784;50.734;7.086;2023-11-19T00:56:00;10.99;98.29
68801;SHT31;55784;50.734;7.086;2023-11-19T00:58:40;11.01;98.29
68801;SHT31;55784;50.734;7.086;2023-11-19T01:01:12;11.01;98.36
68801;SHT31;55784;50.734;7.086;2023-11-19T01:03:49;11.07;98.39
68801;SHT31;55784;50.734;7.086;2023-11-19T01:06:32;11.03;98.65
68801;SHT31;55784;50.734;7.086;2023-11-19T01:09:36;11.01;98.76
68801;SHT31;55784;50.734;7.086;2023-11-19T01:12:24;11.03;99.09
68801;SHT31;55784;50.734;7.086;2023-11-19T01:14:50;11.01;99.17
68801;SHT31;55784;50.734;7.086;2023-11-19T01:17:22;11.09;99.20
68801;SHT31;55784;50.734;7.086;2023-11-19T01:19:48;11.11;99.23
68801;SHT31;55784;50.734;7.086;2023-11-19T01:22:16;11.24;99.31
68801;SHT31;55784;50.734;7.086;2023-11-19T01:28:26;11.28;99.17
68801;SHT31;55784;50.734;7.086;2023-11-19T01:30:57;11.28;99.37
68801;SHT31;55784;50.734;7.086;2023-11-19T01:33:31;11.31;99.42
68801;SHT31;55784;50.734;7.086;2023-11-19T01:35:57;11.35;99.36
68801;SHT31;55784;50.734;7.086;2023-11-19T01:38:45;11.47;99.14
68801;SHT31;55784;50.734;7.086;2023-11-19T01:53:30;11.60;98.71
68801;SHT31;55784;50.734;7.086;2023-11-19T01:55:57;11.61;98.63
68801;SHT31;55784;50.734;7.086;2023-11-19T01:58:26;11.62;98.62
68801;SHT31;55784;50.734;7.086;2023-11-19T02:00:52;11.62;98.70
68801;SHT31;55784;50.734;7.086;2023-11-19T02:03:21;11.60;98.80
68801;SHT31;55784;50.734;7.086;2023-11-19T02:06:02;11.57;98.94
68801;SHT31;55784;50.734;7.086;2023-11-19T02:08:35;11.62;98.97
68801;SHT31;55784;50.734;7.086;2023-11-19T02:11:11;11.72;98.82
68801;SHT31;55784;50.734;7.086;2023-11-19T02:20:57;11.86;98.33
68801;SHT31;55784;50.734;7.086;2023-11-19T02:23:53;11.85;98.29
68801;SHT31;55784;50.734;7.086;2023-11-19T02:27:10;11.86;98.22
68801;SHT31;55784;50.734;7.086;2023-11-19T02:32:37;11.70;98.34
68801;SHT31;55784;50.734;7.086;2023-11-19T02:35:06;11.68;98.71
68801;SHT31;55784;50.734;7.086;2023-11-19T02:37:34;11.62;98.69
68801;SHT31;55784;50.734;7.086;2023-11-19T02:40:03;11.58;99.01
68801;SHT31;55784;50.734;7.086;2023-11-19T02:42:39;11.58;99.07
68801;SHT31;55784;50.734;7.086;2023-11-19T02:45:09;11.55;99.17
68801;SHT31;55784;50.734;7.086;2023-11-19T02:47:43;11.55;99.38
68801;SHT31;55784;50.734;7.086;2023-11-19T02:50:11;11.54;99.53
68801;SHT31;55784;50.734;7.086;2023-11-19T02:52:43;11.51;99.54
68801;SHT31;55784;50.734;7.086;2023-11-19T02:55:10;11.58;99.60
68801;SHT31;55784;50.734;7.086;2023-11-19T02:57:38;11.61;99.56
68801;SHT31;55784;50.734;7.086;2023-11-19T03:00:13;11.60;99.53
68801;SHT31;55784;50.734;7.086;2023-11-19T03:02:49;11.61;99.61
68801;SHT31;55784;50.734;7.086;2023-11-19T03:05:23;11.57;99.47
68801;SHT31;55784;50.734;7.086;2023-11-19T03:07:49;11.52;99.55
68801;SHT31;55784;50.734;7.086;2023-11-19T03:10:17;11.51;99.65
68801;SHT31;55784;50.734;7.086;2023-11-19T03:12:43;11.48;99.78
68801;SHT31;55784;50.734;7.086;2023-11-19T03:15:09;11.48;99.85
68801;SHT31;55784;50.734;7.086;2023-11-19T03:17:42;11.44;99.99
68801;SHT31;55784;50.734;7.086;2023-11-19T03:20:12;11.40;99.99
68801;SHT31;55784;50.734;7.086;2023-11-19T03:22:46;11.31;99.99
68801;SHT31;55784;50.734;7.086;2023-11-19T03:25:11;11.20;99.99
68801;SHT31;55784;50.734;7.086;2023-11-19T03:27:38;11.14;99.99
68801;SHT31;55784;50.734;7.086;2023-11-19T03:30:08;11.07;99.99
68801;SHT31;55784;50.734;7.086;2023-11-19T03:32:35;11.09;99.99
68801;SHT31;55784;50.734;7.086;2023-11-19T03:35:03;11.10;99.99
68801;SHT31;55784;50.734;7.086;2023-11-19T03:37:29;11.04;99.99
68801;SHT31;55784;50.734;7.086;2023-11-19T03:39:56;11.07;99.99
68801;SHT31;55784;50.734;7.086;2023-11-19T03:42:25;11.10;99.99
68801;SHT31;55784;50.734;7.086;2023-11-19T03:44:56;11.17;99.99
68801;SHT31;55784;50.734;7.086;2023-11-19T03:47:29;11.19;99.54
68801;SHT31;55784;50.734;7.086;2023-11-19T03:49:57;11.23;98.89
68801;SHT31;55784;50.734;7.086;2023-11-19T03:52:47;11.24;99.04
68801;SHT31;55784;50.734;7.086;2023-11-19T03:55:16;11.35;98.39
68801;SHT31;55784;50.734;7.086;2023-11-19T03:57:53;11.44;98.17
68801;SHT31;55784;50.734;7.086;2023-11-19T04:00:37;11.57;97.48
68801;SHT31;55784;50.734;7.086;2023-11-19T04:03:12;11.60;97.68
68801;SHT31;55784;50.734;7.086;2023-11-19T04:05:37;11.74;96.64
68801;SHT31;55784;50.734;7.086;2023-11-19T04:08:03;11.86;96.09
68801;SHT31;55784;50.734;7.086;2023-11-19T04:10:31;11.89;96.01
68801;SHT31;55784;50.734;7.086;2023-11-19T04:12:57;12.03;95.36
68801;SHT31;55784;50.734;7.086;2023-11-19T04:15:22;12.08;95.45
68801;SHT31;55784;50.734;7.086;2023-11-19T04:17:48;12.16;95.12
68801;SHT31;55784;50.734;7.086;2023-11-19T04:20:13;12.19;95.19
68801;SHT31;55784;50.734;7.086;2023-11-19T04:22:39;12.21;94.95
68801;SHT31;55784;50.734;7.086;2023-11-19T04:25:05;12.23;94.70
68801;SHT31;55784;50.734;7.086;2023-11-19T04:27:30;12.25;94.74
68801;SHT31;55784;50.734;7.086;2023-11-19T04:29:56;12.23;94.44
68801;SHT31;55784;50.734;7.086;2023-11-19T04:32:32;12.21;94.23
68801;SHT31;55784;50.734;7.086;2023-11-19T04:35:01;12.28;94.02
68801;SHT31;55784;50.734;7.086;2023-11-19T04:37:26;12.22;94.01
68801;SHT31;55784;50.734;7.086;2023-11-19T04:39:54;12.15;94.06
68801;SHT31;55784;50.734;7.086;2023-11-19T04:42:23;12.05;94.08
68801;SHT31;55784;50.734;7.086;2023-11-19T04:44:52;12.15;93.83
68801;SHT31;55784;50.734;7.086;2023-11-19T04:47:20;12.01;94.10
68801;SHT31;55784;50.734;7.086;2023-11-19T04:53:10;12.34;91.84
68801;SHT31;55784;50.734;7.086;2023-11-19T04:55:39;12.44;91.77
68801;SHT31;55784;50.734;7.086;2023-11-19T04:58:04;12.36;91.89
68801;SHT31;55784;50.734;7.086;2023-11-19T05:00:33;12.39;91.78
68801;SHT31;55784;50.734;7.086;2023-11-19T05:06:54;12.33;91.85
68801;SHT31;55784;50.734;7.086;2023-11-19T05:09:33;12.34;91.43
68801;SHT31;55784;50.734;7.086;2023-11-19T05:12:21;12.42;91.46
68801;SHT31;55784;50.734;7.086;2023-11-19T05:14:57;12.44;91.39
68801;SHT31;55784;50.734;7.086;2023-11-19T05:17:23;12.32;91.44
68801;SHT31;55784;50.734;7.086;2023-11-19T05:19:51;12.22;91.65
68801;SHT31;55784;50.734;7.086;2023-11-19T05:22:19;12.09;92.12
68801;SHT31;55784;50.734;7.086;2023-11-19T05:24:45;12.06;92.21
68801;SHT31;55784;50.734;7.086;2023-11-19T05:27:13;12.08;92.29
68801;SHT31;55784;50.734;7.086;2023-11-19T05:29:39;12.01;92.24
68801;SHT31;55784;50.734;7.086;2023-11-19T05:32:06;12.06;92.38
68801;SHT31;55784;50.734;7.086;2023-11-19T05:34:32;12.09;91.57
68801;SHT31;55784;50.734;7.086;2023-11-19T05:36:57;12.08;90.85
68801;SHT31;55784;50.734;7.086;2023-11-19T05:39:23;12.16;90.23
68801;SHT31;55784;50.734;7.086;2023-11-19T05:41:49;12.22;90.00
68801;SHT31;55784;50.734;7.086;2023-11-19T05:44:18;12.21;89.84
68801;SHT31;55784;50.734;7.086;2023-11-19T05:46:44;12.08;90.34
68801;SHT31;55784;50.734;7.086;2023-11-19T05:49:10;12.02;90.10
68801;SHT31;55784;50.734;7.086;2023-11-19T05:51:39;11.96;90.39
68801;SHT31;55784;50.734;7.086;2023-11-19T05:54:07;11.82;90.67
68801;SHT31;55784;50.734;7.086;2023-11-19T05:56:32;11.78;90.86
68801;SHT31;55784;50.734;7.086;2023-11-19T05:58:58;11.83;90.74
68801;SHT31;55784;50.734;7.086;2023-11-19T06:01:26;12.13;89.61
68801;SHT31;55784;50.734;7.086;2023-11-19T06:03:55;12.25;88.88
68801;SHT31;55784;50.734;7.086;2023-11-19T06:06:20;12.26;88.56
68801;SHT31;55784;50.734;7.086;2023-11-19T06:08:46;12.29;88.54
68801;SHT31;55784;50.734;7.086;2023-11-19T06:11:12;12.28;88.95
68801;SHT31;55784;50.734;7.086;2023-11-19T06:13:44;12.40;88.14
68801;SHT31;55784;50.734;7.086;2023-11-19T06:16:10;12.40;88.62
68801;SHT31;55784;50.734;7.086;2023-11-19T06:18:40;12.32;88.72
68801;SHT31;55784;50.734;7.086;2023-11-19T06:21:06;12.40;89.24
68801;SHT31;55784;50.734;7.086;2023-11-19T06:23:32;12.44;89.29
68801;SHT31;55784;50.734;7.086;2023-11-19T06:26:03;12.53;89.03
68801;SHT31;55784;50.734;7.086;2023-11-19T06:28:34;12.59;89.14
68801;SHT31;55784;50.734;7.086;2023-11-19T06:31:03;12.46;89.22
68801;SHT31;55784;50.734;7.086;2023-11-19T06:33:29;12.39;89.50
68801;SHT31;55784;50.734;7.086;2023-11-19T06:35:54;12.37;89.76
68801;SHT31;55784;50.734;7.086;2023-11-19T06:38:20;12.23;89.67
68801;SHT31;55784;50.734;7.086;2023-11-19T06:40:54;12.13;89.89
68801;SHT31;55784;50.734;7.086;2023-11-19T06:43:19;11.99;90.11
68801;SHT31;55784;50.734;7.086;2023-11-19T06:45:45;11.86;90.47
68801;SHT31;55784;50.734;7.086;2023-11-19T06:48:10;11.83;89.79
68801;SHT31;55784;50.734;7.086;2023-11-19T06:50:36;11.91;89.37
68801;SHT31;55784;50.734;7.086;2023-11-19T06:53:01;11.98;88.52
68801;SHT31;55784;50.734;7.086;2023-11-19T06:55:27;11.96;88.26
68801;SHT31;55784;50.734;7.086;2023-11-19T06:57:52;11.93;88.31
68801;SHT31;55784;50.734;7.086;2023-11-19T07:00:17;11.95;88.62
68801;SHT31;55784;50.734;7.086;2023-11-19T07:02:43;12.03;88.19
68801;SHT31;55784;50.734;7.086;2023-11-19T07:05:09;12.03;88.12
68801;SHT31;55784;50.734;7.086;2023-11-19T07:07:35;12.03;88.02
68801;SHT31;55784;50.734;7.086;2023-11-19T07:10:00;12.03;88.01
68801;SHT31;55784;50.734;7.086;2023-11-19T07:12:27;11.99;87.47
68801;SHT31;55784;50.734;7.086;2023-11-19T07:14:52;12.03;87.16
68801;SHT31;55784;50.734;7.086;2023-11-19T07:17:18;12.08;87.40
68801;SHT31;55784;50.734;7.086;2023-11-19T07:19:46;11.98;87.47
68801;SHT31;55784;50.734;7.086;2023-11-19T07:22:11;11.95;87.19
68801;SHT31;55784;50.734;7.086;2023-11-19T07:24:39;11.98;87.37
68801;SHT31;55784;50.734;7.086;2023-11-19T07:27:04;11.95;87.37
68801;SHT31;55784;50.734;7.086;2023-11-19T07:29:29;11.83;87.53
68801;SHT31;55784;50.734;7.086;2023-11-19T07:31:55;11.74;87.94
68801;SHT31;55784;50.734;7.086;2023-11-19T07:34:21;11.74;88.06
68801;SHT31;55784;50.734;7.086;2023-11-19T07:36:46;11.70;88.42
68801;SHT31;55784;50.734;7.086;2023-11-19T07:39:12;11.79;88.19
68801;SHT31;55784;50.734;7.086;2023-11-19T07:41:38;11.82;88.04
68801;SHT31;55784;50.734;7.086;2023-11-19T07:44:03;11.92;87.46
68801;SHT31;55784;50.734;7.086;2023-11-19T07:46:29;12.01;87.45
68801;SHT31;55784;50.734;7.086;2023-11-19T07:48:54;12.11;87.25
68801;SHT31;55784;50.734;7.086;2023-11-19T07:51:19;12.18;87.24
68801;SHT31;55784;50.734;7.086;2023-11-19T07:53:45;12.23;87.34
68801;SHT31;55784;50.734;7.086;2023-11-19T07:56:10;12.32;87.54
68801;SHT31;55784;50.734;7.086;2023-11-19T07:58:36;12.44;87.29
68801;SHT31;55784;50.734;7.086;2023-11-19T08:01:02;12.53;87.13
68801;SHT31;55784;50.734;7.086;2023-11-19T08:03:27;12.68;88.42
68801;SHT31;55784;50.734;7.086;2023-11-19T08:05:55;12.79;87.04
68801;SHT31;55784;50.734;7.086;2023-11-19T08:08:22;12.95;87.51
68801;SHT31;55784;50.734;7.086;2023-11-19T08:10:47;13.10;86.41
68801;SHT31;55784;50.734;7.086;2023-11-19T08:13:12;13.21;85.44
68801;SHT31;55784;50.734;7.086;2023-11-19T08:15:38;13.19;85.51
68801;SHT31;55784;50.734;7.086;2023-11-19T08:18:03;13.19;84.88
68801;SHT31;55784;50.734;7.086;2023-11-19T08:20:30;13.15;85.39
68801;SHT31;55784;50.734;7.086;2023-11-19T08:22:55;13.19;85.25
68801;SHT31;55784;50.734;7.086;2023-11-19T08:25:20;13.24;85.96
68801;SHT31;55784;50.734;7.086;2023-11-19T08:27:46;13.18;84.30
68801;SHT31;55784;50.734;7.086;2023-11-19T08:30:12;13.21;84.47
68801;SHT31;55784;50.734;7.086;2023-11-19T08:32:37;13.15;84.94
68801;SHT31;55784;50.734;7.086;2023-11-19T08:35:03;13.14;83.88
68801;SHT31;55784;50.734;7.086;2023-11-19T08:37:28;13.11;83.97
68801;SHT31;55784;50.734;7.086;2023-11-19T08:39:53;13.14;83.84
68801;SHT31;55784;50.734;7.086;2023-11-19T08:42:19;13.22;84.07
68801;SHT31;55784;50.734;7.086;2023-11-19T08:44:49;13.28;82.41
68801;SHT31;55784;50.734;7.086;2023-11-19T08:47:16;13.45;83.64
68801;SHT31;55784;50.734;7.086;2023-11-19T08:49:43;13.49;82.57
68801;SHT31;55784;50.734;7.086;2023-11-19T08:52:08;13.55;82.90
68801;SHT31;55784;50.734;7.086;2023-11-19T08:54:34;13.49;82.72
68801;SHT31;55784;50.734;7.086;2023-11-19T08:56:59;13.51;81.02
68801;SHT31;55784;50.734;7.086;2023-11-19T08:59:25;13.48;81.91
68801;SHT31;55784;50.734;7.086;2023-11-19T09:01:51;13.38;80.90
68801;SHT31;55784;50.734;7.086;2023-11-19T09:04:16;13.39;81.80
68801;SHT31;55784;50.734;7.086;2023-11-19T09:06:41;13.25;81.68
68801;SHT31;55784;50.734;7.086;2023-11-19T09:09:08;13.39;83.02
68801;SHT31;55784;50.734;7.086;2023-11-19T09:11:33;13.59;82.17
68801;SHT31;55784;50.734;7.086;2023-11-19T09:13:58;13.57;81.30
68801;SHT31;55784;50.734;7.086;2023-11-19T09:16:24;13.52;83.01
68801;SHT31;55784;50.734;7.086;2023-11-19T09:18:49;13.59;80.23
68801;SHT31;55784;50.734;7.086;2023-11-19T09:21:14;13.61;82.02
68801;SHT31;55784;50.734;7.086;2023-11-19T09:23:40;13.55;80.36
68801;SHT31;55784;50.734;7.086;2023-11-19T09:26:05;13.58;81.02
68801;SHT31;55784;50.734;7.086;2023-11-19T09:28:31;13.54;80.54
68801;SHT31;55784;50.734;7.086;2023-11-19T09:30:57;13.59;81.47
68801;SHT31;55784;50.734;7.086;2023-11-19T09:33:23;13.62;81.13
68801;SHT31;55784;50.734;7.086;2023-11-19T09:35:48;13.68;80.27
68801;SHT31;55784;50.734;7.086;2023-11-19T09:38:15;13.78;81.03
68801;SHT31;55784;50.734;7.086;2023-11-19T09:40:40;13.76;80.67
68801;SHT31;55784;50.734;7.086;2023-11-19T09:43:06;13.83;79.57
68801;SHT31;55784;50.734;7.086;2023-11-19T09:45:47;13.90;79.86
68801;SHT31;55784;50.734;7.086;2023-11-19T09:48:16;13.93;79.25
68801;SHT31;55784;50.734;7.086;2023-11-19T09:50:42;13.92;79.32
68801;SHT31;55784;50.734;7.086;2023-11-19T09:53:07;13.95;81.18
68801;SHT31;55784;50.734;7.086;2023-11-19T09:55:33;13.99;78.42
68801;SHT31;55784;50.734;7.086;2023-11-19T09:57:59;14.06;79.70
68801;SHT31;55784;50.734;7.086;2023-11-19T10:00:26;14.09;80.40
68801;SHT31;55784;50.734;7.086;2023-11-19T10:02:52;14.20;78.46
68801;SHT31;55784;50.734;7.086;2023-11-19T10:05:19;14.40;78.65
68801;SHT31;55784;50.734;7.086;2023-11-19T10:07:45;14.48;77.63
68801;SHT31;55784;50.734;7.086;2023-11-19T10:10:12;14.48;76.71
68801;SHT31;55784;50.734;7.086;2023-11-19T10:12:40;14.59;76.94
68801;SHT31;55784;50.734;7.086;2023-11-19T10:15:06;14.68;76.79
68801;SHT31;55784;50.734;7.086;2023-11-19T10:17:36;14.72;76.95
68801;SHT31;55784;50.734;7.086;2023-11-19T10:20:01;14.80;77.23
68801;SHT31;55784;50.734;7.086;2023-11-19T10:22:27;14.89;76.61
68801;SHT31;55784;50.734;7.086;2023-11-19T10:24:53;15.11;76.26
68801;SHT31;55784;50.734;7.086;2023-11-19T10:27:18;15.29;75.51
68801;SHT31;55784;50.734;7.086;2023-11-19T10:29:47;15.35;74.71
68801;SHT31;55784;50.734;7.086;2023-11-19T10:32:13;15.50;75.92
68801;SHT31;55784;50.734;7.086;2023-11-19T10:34:40;15.53;74.27
68801;SHT31;55784;50.734;7.086;2023-11-19T10:37:06;15.70;74.71
68801;SHT31;55784;50.734;7.086;2023-11-19T10:39:51;15.91;73.86
68801;SHT31;55784;50.734;7.086;2023-11-19T10:42:16;16.06;73.78
68801;SHT31;55784;50.734;7.086;2023-11-19T10:44:42;16.07;72.57
68801;SHT31;55784;50.734;7.086;2023-11-19T10:47:08;16.17;73.90
68801;SHT31;55784;50.734;7.086;2023-11-19T10:49:34;15.97;72.44
68801;SHT31;55784;50.734;7.086;2023-11-19T10:52:00;16.04;72.57
68801;SHT31;55784;50.734;7.086;2023-11-19T10:54:27;16.03;72.05
68801;SHT31;55784;50.734;7.086;2023-11-19T10:56:55;16.10;71.88
68801;SHT31;55784;50.734;7.086;2023-11-19T10:59:22;16.06;71.43
68801;SHT31;55784;50.734;7.086;2023-11-19T11:01:50;15.97;71.30
68801;SHT31;55784;50.734;7.086;2023-11-19T11:04:23;16.11;72.76
68801;SHT31;55784;50.734;7.086;2023-11-19T11:06:48;15.98;71.72
68801;SHT31;55784;50.734;7.086;2023-11-19T11:09:15;15.91;72.09
68801;SHT31;55784;50.734;7.086;2023-11-19T11:11:46;15.85;71.75
68801;SHT31;55784;50.734;7.086;2023-11-19T11:14:12;15.90;71.68
68801;SHT31;55784;50.734;7.086;2023-11-19T11:16:42;15.86;71.41
68801;SHT31;55784;50.734;7.086;2023-11-19T11:19:09;15.80;72.68
68801;SHT31;55784;50.734;7.086;2023-11-19T11:21:34;15.82;72.06
68801;SHT31;55784;50.734;7.086;2023-11-19T11:26:35;15.70;72.32
68801;SHT31;55784;50.734;7.086;2023-11-19T11:29:10;15.73;72.16
68801;SHT31;55784;50.734;7.086;2023-11-19T11:32:05;15.60;71.45
68801;SHT31;55784;50.734;7.086;2023-11-19T11:37:33;15.25;73.05
68801;SHT31;55784;50.734;7.086;2023-11-19T11:40:01;15.24;73.51
68801;SHT31;55784;50.734;7.086;2023-11-19T11:42:31;15.26;72.98
68801;SHT31;55784;50.734;7.086;2023-11-19T11:45:06;15.42;72.71
68801;SHT31;55784;50.734;7.086;2023-11-19T11:55:37;15.25;73.93
68801;SHT31;55784;50.734;7.086;2023-11-19T11:58:28;15.19;76.18
68801;SHT31;55784;50.734;7.086;2023-11-19T12:00:57;15.29;75.76
68801;SHT31;55784;50.734;7.086;2023-11-19T12:03:22;15.40;76.03
68801;SHT31;55784;50.734;7.086;2023-11-19T12:05:48;15.35;76.24
68801;SHT31;55784;50.734;7.086;2023-11-19T12:08:15;15.28;76.11
68801;SHT31;55784;50.734;7.086;2023-11-19T12:10:51;15.16;76.34
68801;SHT31;55784;50.734;7.086;2023-11-19T12:13:18;15.01;75.60
68801;SHT31;55784;50.734;7.086;2023-11-19T12:16:07;14.96;75.77
68801;SHT31;55784;50.734;7.086;2023-11-19T12:18:33;14.89;77.37
68801;SHT31;55784;50.734;7.086;2023-11-19T12:20:59;14.80;76.49
68801;SHT31;55784;50.734;7.086;2023-11-19T12:23:31;14.88;76.45
68801;SHT31;55784;50.734;7.086;2023-11-19T12:25:58;15.01;76.07
68801;SHT31;55784;50.734;7.086;2023-11-19T12:28:23;15.12;75.86
68801;SHT31;55784;50.734;7.086;2023-11-19T12:30:52;15.21;75.67
68801;SHT31;55784;50.734;7.086;2023-11-19T12:33:18;15.31;75.29
68801;SHT31;55784;50.734;7.086;2023-11-19T12:35:46;15.31;75.35
68801;SHT31;55784;50.734;7.086;2023-11-19T12:38:25;15.32;75.47
68801;SHT31;55784;50.734;7.086;2023-11-19T12:41:07;15.25;76.19
68801;SHT31;55784;50.734;7.086;2023-11-19T12:43:33;15.28;76.45
68801;SHT31;55784;50.734;7.086;2023-11-19T12:48:45;15.36;76.42
68801;SHT31;55784;50.734;7.086;2023-11-19T12:51:10;15.46;75.21
68801;SHT31;55784;50.734;7.086;2023-11-19T12:53:53;15.39;75.18
68801;SHT31;55784;50.734;7.086;2023-11-19T12:56:24;15.50;75.37
68801;SHT31;55784;50.734;7.086;2023-11-19T12:58:49;15.43;74.50
68801;SHT31;55784;50.734;7.086;2023-11-19T13:01:19;15.45;75.66
68801;SHT31;55784;50.734;7.086;2023-11-19T13:03:45;15.32;75.48
68801;SHT31;55784;50.734;7.086;2023-11-19T13:06:13;15.08;77.21
68801;SHT31;55784;50.734;7.086;2023-11-19T13:08:49;15.04;77.77
68801;SHT31;55784;50.734;7.086;2023-11-19T13:11:38;14.92;78.38
68801;SHT31;55784;50.734;7.086;2023-11-19T13:14:06;15.04;78.93
68801;SHT31;55784;50.734;7.086;2023-11-19T13:16:36;15.02;79.07
68801;SHT31;55784;50.734;7.086;2023-11-19T13:19:02;15.15;78.89
68801;SHT31;55784;50.734;7.086;2023-11-19T13:21:28;15.11;79.78
68801;SHT31;55784;50.734;7.086;2023-11-19T13:23:54;14.95;79.21
68801;SHT31;55784;50.734;7.086;2023-11-19T13:26:20;14.82;79.87
68801;SHT31;55784;50.734;7.086;2023-11-19T13:28:45;14.57;80.22
68801;SHT31;55784;50.734;7.086;2023-11-19T13:31:11;14.59;80.84
68801;SHT31;55784;50.734;7.086;2023-11-19T13:33:36;14.50;81.34
68801;SHT31;55784;50.734;7.086;2023-11-19T13:36:03;14.48;79.95
68801;SHT31;55784;50.734;7.086;2023-11-19T13:38:34;14.37;79.78
68801;SHT31;55784;50.734;7.086;2023-11-19T13:41:03;14.33;80.14
68801;SHT31;55784;50.734;7.086;2023-11-19T13:43:33;14.26;79.14
68801;SHT31;55784;50.734;7.086;2023-11-19T13:45:58;14.37;79.80
68801;SHT31;55784;50.734;7.086;2023-11-19T13:48:24;14.57;79.37
68801;SHT31;55784;50.734;7.086;2023-11-19T13:50:50;14.74;78.13
68801;SHT31;55784;50.734;7.086;2023-11-19T13:53:15;14.88;76.80
68801;SHT31;55784;50.734;7.086;2023-11-19T13:55:42;14.88;77.13
68801;SHT31;55784;50.734;7.086;2023-11-19T13:58:07;14.80;76.29
68801;SHT31;55784;50.734;7.086;2023-11-19T14:00:32;14.75;77.04
68801;SHT31;55784;50.734;7.086;2023-11-19T14:02:58;14.68;76.72
68801;SHT31;55784;50.734;7.086;2023-11-19T14:05:23;14.56;77.24
68801;SHT31;55784;50.734;7.086;2023-11-19T14:07:49;14.43;77.03
68801;SHT31;55784;50.734;7.086;2023-11-19T14:10:15;14.45;77.39
68801;SHT31;55784;50.734;7.086;2023-11-19T14:12:41;14.40;77.40
68801;SHT31;55784;50.734;7.086;2023-11-19T14:15:07;14.51;76.71
68801;SHT31;55784;50.734;7.086;2023-11-19T14:17:34;14.67;76.84
68801;SHT31;55784;50.734;7.086;2023-11-19T14:20:03;14.68;77.00
68801;SHT31;55784;50.734;7.086;2023-11-19T14:22:54;14.68;75.62
68801;SHT31;55784;50.734;7.086;2023-11-19T14:25:20;14.77;75.16
68801;SHT31;55784;50.734;7.086;2023-11-19T14:27:46;14.84;76.47
68801;SHT31;55784;50.734;7.086;2023-11-19T14:30:12;14.88;74.78
68801;SHT31;55784;50.734;7.086;2023-11-19T14:32:42;14.89;74.39
68801;SHT31;55784;50.734;7.086;2023-11-19T14:35:09;14.94;75.29
68801;SHT31;55784;50.734;7.086;2023-11-19T14:37:34;14.95;74.28
68801;SHT31;55784;50.734;7.086;2023-11-19T14:40:00;14.91;75.15
68801;SHT31;55784;50.734;7.086;2023-11-19T14:42:28;14.84;74.18
68801;SHT31;55784;50.734;7.086;2023-11-19T14:44:54;14.82;74.66
68801;SHT31;55784;50.734;7.086;2023-11-19T14:47:26;14.89;75.88
68801;SHT31;55784;50.734;7.086;2023-11-19T14:49:51;14.89;75.65
68801;SHT31;55784;50.734;7.086;2023-11-19T14:52:17;14.91;74.81
68801;SHT31;55784;50.734;7.086;2023-11-19T14:54:42;14.72;75.13
68801;SHT31;55784;50.734;7.086;2023-11-19T14:57:07;14.61;75.32
68801;SHT31;55784;50.734;7.086;2023-11-19T14:59:36;14.64;75.28
68801;SHT31;55784;50.734;7.086;2023-11-19T15:02:03;14.65;75.10
68801;SHT31;55784;50.734;7.086;2023-11-19T15:04:35;14.59;76.32
68801;SHT31;55784;50.734;7.086;2023-11-19T15:07:01;14.57;76.69
68801;SHT31;55784;50.734;7.086;2023-11-19T15:09:26;14.48;76.34
68801;SHT31;55784;50.734;7.086;2023-11-19T15:11:54;14.41;76.01
68801;SHT31;55784;50.734;7.086;2023-11-19T15:14:20;14.31;76.41
68801;SHT31;55784;50.734;7.086;2023-11-19T15:16:46;14.20;76.56
68801;SHT31;55784;50.734;7.086;2023-11-19T15:19:14;14.14;77.48
68801;SHT31;55784;50.734;7.086;2023-11-19T15:21:42;14.19;77.34
68801;SHT31;55784;50.734;7.086;2023-11-19T15:24:08;14.10;76.96
68801;SHT31;55784;50.734;7.086;2023-11-19T15:26:34;14.06;77.58
68801;SHT31;55784;50.734;7.086;2023-11-19T15:29:00;14.02;78.08
68801;SHT31;55784;50.734;7.086;2023-11-19T15:31:26;13.89;77.95
68801;SHT31;55784;50.734;7.086;2023-11-19T15:33:51;13.85;78.26
68801;SHT31;55784;50.734;7.086;2023-11-19T15:36:17;13.85;78.52
68801;SHT31;55784;50.734;7.086;2023-11-19T15:38:43;13.83;78.47
68801;SHT31;55784;50.734;7.086;2023-11-19T15:41:08;13.80;78.85
68801;SHT31;55784;50.734;7.086;2023-11-19T15:43:33;13.80;79.37
68801;SHT31;55784;50.734;7.086;2023-11-19T15:45:59;13.79;79.45
68801;SHT31;55784;50.734;7.086;2023-11-19T15:48:24;13.80;78.74
68801;SHT31;55784;50.734;7.086;2023-11-19T15:50:51;13.82;79.12
68801;SHT31;55784;50.734;7.086;2023-11-19T15:53:16;13.76;78.95
68801;SHT31;55784;50.734;7.086;2023-11-19T15:55:43;13.75;79.25
68801;SHT31;55784;50.734;7.086;2023-11-19T15:58:09;13.69;79.18
68801;SHT31;55784;50.734;7.086;2023-11-19T16:00:34;13.65;79.37
68801;SHT31;55784;50.734;7.086;2023-11-19T16:02:59;13.58;78.72
68801;SHT31;55784;50.734;7.086;2023-11-19T16:05:25;13.48;78.99
68801;SHT31;55784;50.734;7.086;2023-11-19T16:07:50;13.44;80.06
68801;SHT31;55784;50.734;7.086;2023-11-19T16:10:16;13.29;79.62
68801;SHT31;55784;50.734;7.086;2023-11-19T16:12:48;13.11;79.47
68801;SHT31;55784;50.734;7.086;2023-11-19T16:15:13;13.05;80.36
68801;SHT31;55784;50.734;7.086;2023-11-19T16:17:40;12.91;79.56
68801;SHT31;55784;50.734;7.086;2023-11-19T16:20:07;12.84;80.06
68801;SHT31;55784;50.734;7.086;2023-11-19T16:22:35;12.80;81.11
68801;SHT31;55784;50.734;7.086;2023-11-19T16:25:00;12.74;80.43
68801;SHT31;55784;50.734;7.086;2023-11-19T16:27:27;12.66;80.28